sensor_id;sensor_type;location;lat;lon;timestamp;P1;durP1;ratioP1;P2;durP2;ratioP2
49566;SDS011;35472;50.514;30.448;2022-07-22T00:00:57;4.20;;;3.83;;
49566;SDS011;35472;50.514;30.448;2022-07-22T00:03:23;5.97;;;3.20;;
49566;SDS011;35472;50.514;30.448;2022-07-22T00:05:48;5.95;;;3.30;;
49566;SDS011;35472;50.514;30.448;2022-07-22T00:08:14;4.15;;;2.80;;
49566;SDS011;35472;50.514;30.448;2022-07-22T00:10:40;4.28;;;3.08;;
49566;SDS011;35472;50.514;30.448;2022-07-22T00:13:06;4.32;;;3.28;;
49566;SDS011;35472;50.514;30.448;2022-07-22T00:15:31;5.50;;;2.97;;
49566;SDS011;35472;50.514;30.448;2022-07-22T00:17:57;7.05;;;3.55;;
49566;SDS011;35472;50.514;30.448;2022-07-22T00:20:22;5.15;;;3.15;;
49566;SDS011;35472;50.514;30.448;2022-07-22T00:22:48;3.00;;;2.75;;
49566;SDS011;35472;50.514;30.448;2022-07-22T00:25:13;5.53;;;2.63;;
49566;SDS011;35472;50.514;30.448;2022-07-22T00:27:39;3.53;;;3.22;;
49566;SDS011;35472;50.514;30.448;2022-07-22T00:30:04;5.20;;;3.42;;
49566;SDS011;35472;50.514;30.448;2022-07-22T00:32:30;5.22;;;3.30;;
49566;SDS011;35472;50.514;30.448;2022-07-22T00:34:56;4.22;;;3.00;;
49566;SDS011;35472;50.514;30.448;2022-07-22T00:37:21;4.30;;;3.70;;
49566;SDS011;35472;50.514;30.448;2022-07-22T00:39:47;5.07;;;3.53;;
49566;SDS011;35472;50.514;30.448;2022-07-22T00:42:15;4.25;;;2.85;;
49566;SDS011;35472;50.514;30.448;2022-07-22T00:44:41;7.47;;;3.20;;
49566;SDS011;35472;50.514;30.448;2022-07-22T00:47:06;3.83;;;3.28;;
49566;SDS011;35472;50.514;30.448;2022-07-22T00:49:32;6.18;;;3.33;;
49566;SDS011;35472;50.514;30.448;2022-07-22T00:51:57;5.32;;;3.30;;
49566;SDS011;35472;50.514;30.448;2022-07-22T00:54:23;4.50;;;3.47;;
49566;SDS011;35472;50.514;30.448;2022-07-22T00:56:48;4.60;;;3.65;;
49566;SDS011;35472;50.514;30.448;2022-07-22T00:59:14;3.38;;;3.05;;
49566;SDS011;35472;50.514;30.448;2022-07-22T01:01:40;4.93;;;3.20;;
49566;SDS011;35472;50.514;30.448;2022-07-22T01:04:06;7.18;;;3.17;;
49566;SDS011;35472;50.514;30.448;2022-07-22T01:06:32;5.35;;;3.13;;
49566;SDS011;35472;50.514;30.448;2022-07-22T01:08:57;4.03;;;3.20;;
49566;SDS011;35472;50.514;30.448;2022-07-22T01:11:24;4.68;;;3.30;;
49566;SDS011;35472;50.514;30.448;2022-07-22T01:13:49;5.95;;;3.15;;
49566;SDS011;35472;50.514;30.448;2022-07-22T01:16:16;5.20;;;2.90;;
49566;SDS011;35472;50.514;30.448;2022-07-22T01:18:43;3.38;;;2.92;;
49566;SDS011;35472;50.514;30.448;2022-07-22T01:21:09;3.90;;;3.13;;
49566;SDS011;35472;50.514;30.448;2022-07-22T01:23:36;4.97;;;2.95;;
49566;SDS011;35472;50.514;30.448;2022-07-22T01:26:02;4.68;;;3.13;;
49566;SDS011;35472;50.514;30.448;2022-07-22T01:28:29;3.67;;;3.03;;
49566;SDS011;35472;50.514;30.448;2022-07-22T01:30:54;5.55;;;3.45;;
49566;SDS011;35472;50.514;30.448;2022-07-22T01:33:21;4.32;;;2.88;;
49566;SDS011;35472;50.514;30.448;2022-07-22T01:35:47;4.00;;;2.60;;
49566;SDS011;35472;50.514;30.448;2022-07-22T01:38:13;3.20;;;2.90;;
49566;SDS011;35472;50.514;30.448;2022-07-22T01:40:40;5.72;;;2.83;;
49566;SDS011;35472;50.514;30.448;2022-07-22T01:43:07;3.90;;;3.40;;
49566;SDS011;35472;50.514;30.448;2022-07-22T01:45:34;5.45;;;3.88;;
49566;SDS011;35472;50.514;30.448;2022-07-22T01:47:59;5.07;;;3.10;;
49566;SDS011;35472;50.514;30.448;2022-07-22T01:50:25;3.85;;;2.95;;
49566;SDS011;35472;50.514;30.448;2022-07-22T01:52:51;6.43;;;3.35;;
49566;SDS011;35472;50.514;30.448;2022-07-22T01:55:17;5.43;;;3.42;;
49566;SDS011;35472;50.514;30.448;2022-07-22T01:57:42;4.53;;;3.85;;
49566;SDS011;35472;50.514;30.448;2022-07-22T02:00:16;3.92;;;3.45;;
49566;SDS011;35472;50.514;30.448;2022-07-22T02:02:43;5.32;;;3.17;;
49566;SDS011;35472;50.514;30.448;2022-07-22T02:05:09;5.78;;;3.92;;
49566;SDS011;35472;50.514;30.448;2022-07-22T02:07:35;3.95;;;2.75;;
49566;SDS011;35472;50.514;30.448;2022-07-22T02:10:02;4.75;;;3.00;;
49566;SDS011;35472;50.514;30.448;2022-07-22T02:12:31;17.50;;;4.32;;
49566;SDS011;35472;50.514;30.448;2022-07-22T02:14:56;3.47;;;2.78;;
49566;SDS011;35472;50.514;30.448;2022-07-22T02:17:22;3.53;;;3.22;;
49566;SDS011;35472;50.514;30.448;2022-07-22T02:19:47;8.02;;;3.85;;
49566;SDS011;35472;50.514;30.448;2022-07-22T02:22:14;7.47;;;4.20;;
49566;SDS011;35472;50.514;30.448;2022-07-22T02:24:39;3.92;;;3.10;;
49566;SDS011;35472;50.514;30.448;2022-07-22T02:27:05;4.50;;;3.47;;
49566;SDS011;35472;50.514;30.448;2022-07-22T02:29:31;6.80;;;4.55;;
49566;SDS011;35472;50.514;30.448;2022-07-22T02:31:58;4.97;;;3.15;;
49566;SDS011;35472;50.514;30.448;2022-07-22T02:34:23;5.55;;;3.50;;
49566;SDS011;35472;50.514;30.448;2022-07-22T02:36:49;3.70;;;3.30;;
49566;SDS011;35472;50.514;30.448;2022-07-22T02:39:14;12.18;;;6.50;;
49566;SDS011;35472;50.514;30.448;2022-07-22T02:41:40;8.68;;;4.70;;
49566;SDS011;35472;50.514;30.448;2022-07-22T02:44:05;8.30;;;4.90;;
49566;SDS011;35472;50.514;30.448;2022-07-22T02:46:34;5.82;;;4.88;;
49566;SDS011;35472;50.514;30.448;2022-07-22T02:49:09;3.85;;;3.35;;
49566;SDS011;35472;50.514;30.448;2022-07-22T02:51:34;7.00;;;3.53;;
49566;SDS011;35472;50.514;30.448;2022-07-22T02:54:00;4.78;;;3.72;;
49566;SDS011;35472;50.514;30.448;2022-07-22T02:56:26;3.13;;;2.83;;
49566;SDS011;35472;50.514;30.448;2022-07-22T02:58:51;7.80;;;4.30;;
49566;SDS011;35472;50.514;30.448;2022-07-22T03:01:18;4.55;;;3.33;;
49566;SDS011;35472;50.514;30.448;2022-07-22T03:03:50;5.10;;;3.47;;
49566;SDS011;35472;50.514;30.448;2022-07-22T03:06:16;5.00;;;4.07;;
49566;SDS011;35472;50.514;30.448;2022-07-22T03:08:52;7.18;;;4.45;;
49566;SDS011;35472;50.514;30.448;2022-07-22T03:11:18;5.15;;;4.18;;
49566;SDS011;35472;50.514;30.448;2022-07-22T03:13:43;4.50;;;4.05;;
49566;SDS011;35472;50.514;30.448;2022-07-22T03:16:08;4.90;;;3.67;;
49566;SDS011;35472;50.514;30.448;2022-07-22T03:18:35;4.82;;;2.97;;
49566;SDS011;35472;50.514;30.448;2022-07-22T03:21:01;5.40;;;3.50;;
49566;SDS011;35472;50.514;30.448;2022-07-22T03:23:26;7.78;;;3.90;;
49566;SDS011;35472;50.514;30.448;2022-07-22T03:25:52;4.55;;;3.65;;
49566;SDS011;35472;50.514;30.448;2022-07-22T03:28:17;5.35;;;4.10;;
49566;SDS011;35472;50.514;30.448;2022-07-22T03:30:42;4.75;;;4.00;;
49566;SDS011;35472;50.514;30.448;2022-07-22T03:33:08;6.05;;;4.03;;
49566;SDS011;35472;50.514;30.448;2022-07-22T03:35:38;4.47;;;3.55;;
49566;SDS011;35472;50.514;30.448;2022-07-22T03:38:03;6.47;;;3.72;;
49566;SDS011;35472;50.514;30.448;2022-07-22T03:40:29;7.28;;;4.03;;
49566;SDS011;35472;50.514;30.448;2022-07-22T03:42:56;4.93;;;3.38;;
49566;SDS011;35472;50.514;30.448;2022-07-22T03:45:21;5.25;;;4.15;;
49566;SDS011;35472;50.514;30.448;2022-07-22T03:47:47;5.53;;;3.67;;
49566;SDS011;35472;50.514;30.448;2022-07-22T03:50:12;5.60;;;4.20;;
49566;SDS011;35472;50.514;30.448;2022-07-22T03:52:38;5.38;;;4.35;;
49566;SDS011;35472;50.514;30.448;2022-07-22T03:55:07;6.25;;;4.70;;
49566;SDS011;35472;50.514;30.448;2022-07-22T03:57:32;5.05;;;3.97;;
49566;SDS011;35472;50.514;30.448;2022-07-22T04:00:03;5.07;;;3.67;;
49566;SDS011;35472;50.514;30.448;2022-07-22T04:02:39;5.18;;;2.95;;
49566;SDS011;35472;50.514;30.448;2022-07-22T04:05:05;4.82;;;3.47;;
49566;SDS011;35472;50.514;30.448;2022-07-22T04:07:31;3.70;;;3.28;;
49566;SDS011;35472;50.514;30.448;2022-07-22T04:09:57;7.53;;;3.95;;
49566;SDS011;35472;50.514;30.448;2022-07-22T04:12:33;5.13;;;3.72;;
49566;SDS011;35472;50.514;30.448;2022-07-22T04:15:11;6.18;;;3.35;;
49566;SDS011;35472;50.514;30.448;2022-07-22T04:17:37;4.22;;;3.83;;
49566;SDS011;35472;50.514;30.448;2022-07-22T04:20:03;4.90;;;3.95;;
49566;SDS011;35472;50.514;30.448;2022-07-22T04:22:35;5.30;;;3.78;;
49566;SDS011;35472;50.514;30.448;2022-07-22T04:25:00;3.22;;;2.92;;
49566;SDS011;35472;50.514;30.448;2022-07-22T04:27:26;5.53;;;4.28;;
49566;SDS011;35472;50.514;30.448;2022-07-22T04:29:52;3.88;;;3.47;;
49566;SDS011;35472;50.514;30.448;2022-07-22T04:32:18;5.25;;;4.53;;
49566;SDS011;35472;50.514;30.448;2022-07-22T04:34:43;6.50;;;3.33;;
49566;SDS011;35472;50.514;30.448;2022-07-22T04:37:09;4.55;;;3.35;;
49566;SDS011;35472;50.514;30.448;2022-07-22T04:39:35;6.75;;;5.93;;
49566;SDS011;35472;50.514;30.448;2022-07-22T04:42:01;4.30;;;3.60;;
49566;SDS011;35472;50.514;30.448;2022-07-22T04:44:28;4.40;;;3.72;;
49566;SDS011;35472;50.514;30.448;2022-07-22T04:46:54;3.58;;;3.28;;
49566;SDS011;35472;50.514;30.448;2022-07-22T04:49:20;4.50;;;3.63;;
49566;SDS011;35472;50.514;30.448;2022-07-22T04:51:46;4.63;;;2.80;;
49566;SDS011;35472;50.514;30.448;2022-07-22T04:54:20;3.13;;;2.83;;
49566;SDS011;35472;50.514;30.448;2022-07-22T04:56:45;5.25;;;3.13;;
49566;SDS011;35472;50.514;30.448;2022-07-22T04:59:10;3.60;;;3.10;;
49566;SDS011;35472;50.514;30.448;2022-07-22T05:01:39;3.50;;;3.10;;
49566;SDS011;35472;50.514;30.448;2022-07-22T05:04:06;5.38;;;3.63;;
49566;SDS011;35472;50.514;30.448;2022-07-22T05:06:32;3.17;;;2.78;;
49566;SDS011;35472;50.514;30.448;2022-07-22T05:08:57;4.70;;;3.33;;
49566;SDS011;35472;50.514;30.448;2022-07-22T05:11:23;3.28;;;2.97;;
49566;SDS011;35472;50.514;30.448;2022-07-22T05:13:48;10.50;;;3.25;;
49566;SDS011;35472;50.514;30.448;2022-07-22T05:16:14;3.33;;;3.03;;
49566;SDS011;35472;50.514;30.448;2022-07-22T05:18:39;3.85;;;2.83;;
49566;SDS011;35472;50.514;30.448;2022-07-22T05:21:07;5.38;;;3.35;;
49566;SDS011;35472;50.514;30.448;2022-07-22T05:23:33;4.40;;;2.97;;
49566;SDS011;35472;50.514;30.448;2022-07-22T05:25:59;3.00;;;2.72;;
49566;SDS011;35472;50.514;30.448;2022-07-22T05:28:25;2.67;;;2.47;;
49566;SDS011;35472;50.514;30.448;2022-07-22T05:30:50;3.72;;;2.80;;
49566;SDS011;35472;50.514;30.448;2022-07-22T05:33:16;5.40;;;3.95;;
49566;SDS011;35472;50.514;30.448;2022-07-22T05:36:04;3.60;;;2.92;;
49566;SDS011;35472;50.514;30.448;2022-07-22T05:38:37;5.13;;;3.60;;
49566;SDS011;35472;50.514;30.448;2022-07-22T05:41:02;5.60;;;3.47;;
49566;SDS011;35472;50.514;30.448;2022-07-22T05:43:28;2.35;;;2.13;;
49566;SDS011;35472;50.514;30.448;2022-07-22T05:45:54;4.15;;;3.00;;
49566;SDS011;35472;50.514;30.448;2022-07-22T05:48:21;2.85;;;2.63;;
49566;SDS011;35472;50.514;30.448;2022-07-22T05:50:46;3.35;;;3.05;;
49566;SDS011;35472;50.514;30.448;2022-07-22T05:53:12;2.45;;;2.25;;
49566;SDS011;35472;50.514;30.448;2022-07-22T05:55:37;3.22;;;2.70;;
49566;SDS011;35472;50.514;30.448;2022-07-22T05:58:03;2.58;;;2.20;;
49566;SDS011;35472;50.514;30.448;2022-07-22T06:00:29;4.35;;;2.38;;
49566;SDS011;35472;50.514;30.448;2022-07-22T06:02:54;3.65;;;2.50;;
49566;SDS011;35472;50.514;30.448;2022-07-22T06:05:21;5.15;;;2.13;;
49566;SDS011;35472;50.514;30.448;2022-07-22T06:07:47;2.78;;;1.95;;
49566;SDS011;35472;50.514;30.448;2022-07-22T06:10:23;4.30;;;2.08;;
49566;SDS011;35472;50.514;30.448;2022-07-22T06:12:48;2.40;;;2.08;;
49566;SDS011;35472;50.514;30.448;2022-07-22T06:15:14;2.50;;;2.30;;
49566;SDS011;35472;50.514;30.448;2022-07-22T06:17:39;3.03;;;2.08;;
49566;SDS011;35472;50.514;30.448;2022-07-22T06:20:05;4.38;;;1.95;;
49566;SDS011;35472;50.514;30.448;2022-07-22T06:22:31;1.65;;;1.55;;
49566;SDS011;35472;50.514;30.448;2022-07-22T06:24:57;1.67;;;1.30;;
49566;SDS011;35472;50.514;30.448;2022-07-22T06:27:22;1.63;;;1.42;;
49566;SDS011;35472;50.514;30.448;2022-07-22T06:29:49;3.05;;;1.70;;
49566;SDS011;35472;50.514;30.448;2022-07-22T06:32:14;3.30;;;1.65;;
49566;SDS011;35472;50.514;30.448;2022-07-22T06:34:40;4.10;;;2.05;;
49566;SDS011;35472;50.514;30.448;2022-07-22T06:37:06;1.73;;;1.40;;
49566;SDS011;35472;50.514;30.448;2022-07-22T06:39:32;1.83;;;1.10;;
49566;SDS011;35472;50.514;30.448;2022-07-22T06:42:11;1.88;;;1.10;;
49566;SDS011;35472;50.514;30.448;2022-07-22T06:45:00;1.92;;;1.52;;
49566;SDS011;35472;50.514;30.448;2022-07-22T06:47:54;1.75;;;1.50;;
49566;SDS011;35472;50.514;30.448;2022-07-22T06:50:19;2.08;;;1.88;;
49566;SDS011;35472;50.514;30.448;2022-07-22T06:52:45;1.98;;;1.55;;
49566;SDS011;35472;50.514;30.448;2022-07-22T06:55:10;2.25;;;1.48;;
49566;SDS011;35472;50.514;30.448;2022-07-22T06:57:42;1.85;;;1.75;;
49566;SDS011;35472;50.514;30.448;2022-07-22T07:00:08;1.73;;;1.60;;
49566;SDS011;35472;50.514;30.448;2022-07-22T07:02:48;1.58;;;1.48;;
49566;SDS011;35472;50.514;30.448;2022-07-22T07:05:14;1.73;;;1.48;;
49566;SDS011;35472;50.514;30.448;2022-07-22T07:07:39;4.82;;;2.08;;
49566;SDS011;35472;50.514;30.448;2022-07-22T07:10:05;1.80;;;1.70;;
49566;SDS011;35472;50.514;30.448;2022-07-22T07:12:39;1.25;;;1.15;;
49566;SDS011;35472;50.514;30.448;2022-07-22T07:15:20;2.08;;;1.52;;
49566;SDS011;35472;50.514;30.448;2022-07-22T07:17:46;1.65;;;1.55;;
49566;SDS011;35472;50.514;30.448;2022-07-22T07:20:15;2.33;;;1.17;;
49566;SDS011;35472;50.514;30.448;2022-07-22T07:22:45;1.55;;;1.15;;
49566;SDS011;35472;50.514;30.448;2022-07-22T07:25:10;2.35;;;1.40;;
49566;SDS011;35472;50.514;30.448;2022-07-22T07:27:36;2.15;;;1.38;;
49566;SDS011;35472;50.514;30.448;2022-07-22T07:30:05;2.05;;;1.17;;
49566;SDS011;35472;50.514;30.448;2022-07-22T07:32:31;1.20;;;1.13;;
49566;SDS011;35472;50.514;30.448;2022-07-22T07:34:57;2.42;;;1.58;;
49566;SDS011;35472;50.514;30.448;2022-07-22T07:37:23;1.60;;;1.25;;
49566;SDS011;35472;50.514;30.448;2022-07-22T07:39:48;2.95;;;1.30;;
49566;SDS011;35472;50.514;30.448;2022-07-22T07:42:14;2.10;;;1.27;;
49566;SDS011;35472;50.514;30.448;2022-07-22T07:44:39;2.95;;;1.10;;
49566;SDS011;35472;50.514;30.448;2022-07-22T07:47:05;1.65;;;1.15;;
49566;SDS011;35472;50.514;30.448;2022-07-22T07:49:31;0.80;;;0.80;;
49566;SDS011;35472;50.514;30.448;2022-07-22T07:51:57;2.22;;;1.95;;
49566;SDS011;35472;50.514;30.448;2022-07-22T07:54:22;2.05;;;1.85;;
49566;SDS011;35472;50.514;30.448;2022-07-22T07:56:48;1.80;;;1.70;;
49566;SDS011;35472;50.514;30.448;2022-07-22T07:59:14;3.78;;;1.52;;
49566;SDS011;35472;50.514;30.448;2022-07-22T08:01:41;2.47;;;1.75;;
49566;SDS011;35472;50.514;30.448;2022-07-22T08:04:06;3.53;;;1.73;;
49566;SDS011;35472;50.514;30.448;2022-07-22T08:06:33;3.50;;;1.42;;
49566;SDS011;35472;50.514;30.448;2022-07-22T08:08:59;1.40;;;1.30;;
49566;SDS011;35472;50.514;30.448;2022-07-22T08:11:31;2.03;;;1.87;;
49566;SDS011;35472;50.514;30.448;2022-07-22T08:14:14;1.95;;;1.60;;
49566;SDS011;35472;50.514;30.448;2022-07-22T08:19:24;1.65;;;1.55;;
49566;SDS011;35472;50.514;30.448;2022-07-22T08:21:49;1.75;;;1.52;;
49566;SDS011;35472;50.514;30.448;2022-07-22T08:24:35;2.50;;;1.95;;
49566;SDS011;35472;50.514;30.448;2022-07-22T08:27:08;1.48;;;1.27;;
49566;SDS011;35472;50.514;30.448;2022-07-22T08:29:34;1.45;;;1.33;;
49566;SDS011;35472;50.514;30.448;2022-07-22T08:31:59;1.23;;;1.13;;
49566;SDS011;35472;50.514;30.448;2022-07-22T08:34:24;2.85;;;0.98;;
49566;SDS011;35472;50.514;30.448;2022-07-22T08:36:50;1.80;;;1.10;;
49566;SDS011;35472;50.514;30.448;2022-07-22T08:39:15;1.35;;;1.25;;
49566;SDS011;35472;50.514;30.448;2022-07-22T08:41:41;2.10;;;1.27;;
49566;SDS011;35472;50.514;30.448;2022-07-22T08:44:08;1.80;;;1.35;;
49566;SDS011;35472;50.514;30.448;2022-07-22T08:46:35;0.90;;;0.80;;
49566;SDS011;35472;50.514;30.448;2022-07-22T08:49:19;2.22;;;1.13;;
49566;SDS011;35472;50.514;30.448;2022-07-22T08:52:15;0.70;;;0.70;;
49566;SDS011;35472;50.514;30.448;2022-07-22T08:54:46;1.30;;;1.20;;
49566;SDS011;35472;50.514;30.448;2022-07-22T08:57:13;2.85;;;1.58;;
49566;SDS011;35472;50.514;30.448;2022-07-22T08:59:51;2.42;;;1.23;;
49566;SDS011;35472;50.514;30.448;2022-07-22T09:02:19;2.90;;;1.08;;
49566;SDS011;35472;50.514;30.448;2022-07-22T09:07:28;1.20;;;1.02;;
49566;SDS011;35472;50.514;30.448;2022-07-22T09:10:00;2.42;;;1.30;;
49566;SDS011;35472;50.514;30.448;2022-07-22T09:13:05;0.82;;;0.82;;
49566;SDS011;35472;50.514;30.448;2022-07-22T09:15:54;1.20;;;1.10;;
49566;SDS011;35472;50.514;30.448;2022-07-22T09:21:23;1.17;;;1.08;;
49566;SDS011;35472;50.514;30.448;2022-07-22T09:24:27;1.33;;;0.80;;
49566;SDS011;35472;50.514;30.448;2022-07-22T09:26:55;1.63;;;1.52;;
49566;SDS011;35472;50.514;30.448;2022-07-22T09:29:27;0.82;;;0.80;;
49566;SDS011;35472;50.514;30.448;2022-07-22T09:32:10;1.42;;;0.93;;
49566;SDS011;35472;50.514;30.448;2022-07-22T09:35:04;0.95;;;0.63;;
49566;SDS011;35472;50.514;30.448;2022-07-22T09:37:35;1.30;;;0.90;;
49566;SDS011;35472;50.514;30.448;2022-07-22T09:40:13;2.85;;;0.85;;
49566;SDS011;35472;50.514;30.448;2022-07-22T09:42:43;0.98;;;0.98;;
49566;SDS011;35472;50.514;30.448;2022-07-22T09:45:10;1.00;;;0.90;;
49566;SDS011;35472;50.514;30.448;2022-07-22T09:47:42;2.60;;;0.98;;
49566;SDS011;35472;50.514;30.448;2022-07-22T09:50:28;1.60;;;1.10;;
49566;SDS011;35472;50.514;30.448;2022-07-22T09:53:15;1.35;;;0.82;;
49566;SDS011;35472;50.514;30.448;2022-07-22T09:55:48;1.67;;;1.58;;
49566;SDS011;35472;50.514;30.448;2022-07-22T09:58:14;1.40;;;1.17;;
49566;SDS011;35472;50.514;30.448;2022-07-22T10:00:40;1.13;;;1.02;;
49566;SDS011;35472;50.514;30.448;2022-07-22T10:03:08;1.00;;;0.90;;
49566;SDS011;35472;50.514;30.448;2022-07-22T10:05:38;1.00;;;0.85;;
49566;SDS011;35472;50.514;30.448;2022-07-22T10:08:07;2.45;;;1.00;;
49566;SDS011;35472;50.514;30.448;2022-07-22T10:10:34;1.10;;;1.00;;
49566;SDS011;35472;50.514;30.448;2022-07-22T10:13:02;1.85;;;1.02;;
49566;SDS011;35472;50.514;30.448;2022-07-22T10:15:29;0.88;;;0.88;;
49566;SDS011;35472;50.514;30.448;2022-07-22T10:17:58;1.50;;;0.93;;
49566;SDS011;35472;50.514;30.448;2022-07-22T10:20:27;0.82;;;0.80;;
49566;SDS011;35472;50.514;30.448;2022-07-22T10:22:55;1.92;;;0.75;;
49566;SDS011;35472;50.514;30.448;2022-07-22T10:25:23;6.85;;;1.17;;
49566;SDS011;35472;50.514;30.448;2022-07-22T10:27:52;3.25;;;1.05;;
49566;SDS011;35472;50.514;30.448;2022-07-22T10:30:29;5.85;;;1.38;;
49566;SDS011;35472;50.514;30.448;2022-07-22T10:33:15;0.70;;;0.70;;
49566;SDS011;35472;50.514;30.448;2022-07-22T10:38:09;1.67;;;1.27;;
49566;SDS011;35472;50.514;30.448;2022-07-22T10:40:48;1.95;;;1.48;;
49566;SDS011;35472;50.514;30.448;2022-07-22T10:43:19;1.38;;;1.15;;
49566;SDS011;35472;50.514;30.448;2022-07-22T10:51:16;1.63;;;1.15;;
49566;SDS011;35472;50.514;30.448;2022-07-22T10:56:33;3.75;;;1.27;;
49566;SDS011;35472;50.514;30.448;2022-07-22T10:59:07;1.42;;;0.77;;
49566;SDS011;35472;50.514;30.448;2022-07-22T11:01:34;1.85;;;0.80;;
49566;SDS011;35472;50.514;30.448;2022-07-22T11:04:06;0.77;;;0.77;;
49566;SDS011;35472;50.514;30.448;2022-07-22T11:09:00;0.85;;;0.75;;
49566;SDS011;35472;50.514;30.448;2022-07-22T11:11:47;2.33;;;0.93;;
49566;SDS011;35472;50.514;30.448;2022-07-22T11:14:28;1.85;;;0.70;;
49566;SDS011;35472;50.514;30.448;2022-07-22T11:17:05;1.05;;;0.82;;
49566;SDS011;35472;50.514;30.448;2022-07-22T11:19:33;1.40;;;1.30;;
49566;SDS011;35472;50.514;30.448;2022-07-22T11:22:00;1.80;;;0.80;;
49566;SDS011;35472;50.514;30.448;2022-07-22T11:24:29;1.10;;;1.00;;
49566;SDS011;35472;50.514;30.448;2022-07-22T11:26:55;0.85;;;0.85;;
49566;SDS011;35472;50.514;30.448;2022-07-22T11:31:51;0.98;;;0.98;;
49566;SDS011;35472;50.514;30.448;2022-07-22T11:34:17;0.82;;;0.82;;
49566;SDS011;35472;50.514;30.448;2022-07-22T11:36:44;3.25;;;0.70;;
49566;SDS011;35472;50.514;30.448;2022-07-22T11:39:11;2.90;;;1.30;;
49566;SDS011;35472;50.514;30.448;2022-07-22T11:41:38;0.65;;;0.50;;
49566;SDS011;35472;50.514;30.448;2022-07-22T11:44:04;2.75;;;0.75;;
49566;SDS011;35472;50.514;30.448;2022-07-22T11:46:37;0.77;;;0.77;;
49566;SDS011;35472;50.514;30.448;2022-07-22T11:49:04;0.88;;;0.60;;
49566;SDS011;35472;50.514;30.448;2022-07-22T11:51:31;0.93;;;0.80;;
49566;SDS011;35472;50.514;30.448;2022-07-22T11:53:58;1.35;;;0.80;;
49566;SDS011;35472;50.514;30.448;2022-07-22T11:56:24;1.25;;;0.70;;
49566;SDS011;35472;50.514;30.448;2022-07-22T11:58:51;2.63;;;0.90;;
49566;SDS011;35472;50.514;30.448;2022-07-22T12:01:29;0.85;;;0.80;;
49566;SDS011;35472;50.514;30.448;2022-07-22T12:03:57;0.52;;;0.52;;
49566;SDS011;35472;50.514;30.448;2022-07-22T12:06:27;0.80;;;0.77;;
49566;SDS011;35472;50.514;30.448;2022-07-22T12:08:55;1.88;;;0.70;;
49566;SDS011;35472;50.514;30.448;2022-07-22T12:11:26;2.85;;;1.00;;
49566;SDS011;35472;50.514;30.448;2022-07-22T12:13:52;2.03;;;1.38;;
49566;SDS011;35472;50.514;30.448;2022-07-22T12:16:25;0.63;;;0.63;;
49566;SDS011;35472;50.514;30.448;2022-07-22T12:18:59;0.80;;;0.80;;
49566;SDS011;35472;50.514;30.448;2022-07-22T12:21:29;2.15;;;0.85;;
49566;SDS011;35472;50.514;30.448;2022-07-22T12:31:52;8.00;;;1.55;;
49566;SDS011;35472;50.514;30.448;2022-07-22T12:37:13;0.55;;;0.55;;
49566;SDS011;35472;50.514;30.448;2022-07-22T12:42:41;5.03;;;0.93;;
49566;SDS011;35472;50.514;30.448;2022-07-22T12:45:13;2.13;;;0.82;;
49566;SDS011;35472;50.514;30.448;2022-07-22T12:47:40;4.25;;;1.00;;
49566;SDS011;35472;50.514;30.448;2022-07-22T12:52:47;2.60;;;1.00;;
49566;SDS011;35472;50.514;30.448;2022-07-22T12:55:13;1.25;;;0.85;;
49566;SDS011;35472;50.514;30.448;2022-07-22T12:57:39;2.25;;;0.90;;
49566;SDS011;35472;50.514;30.448;2022-07-22T13:00:04;0.85;;;0.85;;
49566;SDS011;35472;50.514;30.448;2022-07-22T13:02:31;2.22;;;1.85;;
49566;SDS011;35472;50.514;30.448;2022-07-22T13:04:56;1.33;;;0.70;;
49566;SDS011;35472;50.514;30.448;2022-07-22T13:07:21;0.93;;;0.85;;
49566;SDS011;35472;50.514;30.448;2022-07-22T13:09:47;1.00;;;0.90;;
49566;SDS011;35472;50.514;30.448;2022-07-22T13:12:12;2.47;;;0.80;;
49566;SDS011;35472;50.514;30.448;2022-07-22T13:14:37;1.60;;;1.17;;
49566;SDS011;35472;50.514;30.448;2022-07-22T13:17:03;0.75;;;0.75;;
49566;SDS011;35472;50.514;30.448;2022-07-22T13:19:28;0.95;;;0.90;;
49566;SDS011;35472;50.514;30.448;2022-07-22T13:21:54;1.60;;;0.90;;
49566;SDS011;35472;50.514;30.448;2022-07-22T13:24:19;1.05;;;0.95;;
49566;SDS011;35472;50.514;30.448;2022-07-22T13:26:45;1.02;;;0.90;;
49566;SDS011;35472;50.514;30.448;2022-07-22T13:29:10;0.80;;;0.80;;
49566;SDS011;35472;50.514;30.448;2022-07-22T13:34:08;3.65;;;1.40;;
49566;SDS011;35472;50.514;30.448;2022-07-22T13:36:34;1.10;;;1.00;;
49566;SDS011;35472;50.514;30.448;2022-07-22T13:38:59;0.75;;;0.75;;
49566;SDS011;35472;50.514;30.448;2022-07-22T13:41:25;1.23;;;0.85;;
49566;SDS011;35472;50.514;30.448;2022-07-22T13:43:51;1.27;;;0.70;;
49566;SDS011;35472;50.514;30.448;2022-07-22T13:46:17;1.77;;;0.82;;
49566;SDS011;35472;50.514;30.448;2022-07-22T13:48:43;2.60;;;1.05;;
49566;SDS011;35472;50.514;30.448;2022-07-22T13:51:09;1.10;;;0.95;;
49566;SDS011;35472;50.514;30.448;2022-07-22T13:53:35;2.00;;;0.82;;
49566;SDS011;35472;50.514;30.448;2022-07-22T13:56:00;0.90;;;0.80;;
49566;SDS011;35472;50.514;30.448;2022-07-22T13:58:27;1.92;;;0.93;;
49566;SDS011;35472;50.514;30.448;2022-07-22T14:00:52;0.98;;;0.82;;
49566;SDS011;35472;50.514;30.448;2022-07-22T14:03:18;2.67;;;1.33;;
49566;SDS011;35472;50.514;30.448;2022-07-22T14:05:43;0.68;;;0.68;;
49566;SDS011;35472;50.514;30.448;2022-07-22T14:08:10;0.88;;;0.82;;
49566;SDS011;35472;50.514;30.448;2022-07-22T14:10:35;0.77;;;0.70;;
49566;SDS011;35472;50.514;30.448;2022-07-22T14:13:00;2.08;;;1.35;;
49566;SDS011;35472;50.514;30.448;2022-07-22T14:15:26;1.58;;;0.90;;
49566;SDS011;35472;50.514;30.448;2022-07-22T14:17:51;1.58;;;0.90;;
49566;SDS011;35472;50.514;30.448;2022-07-22T14:20:17;2.03;;;1.27;;
49566;SDS011;35472;50.514;30.448;2022-07-22T14:22:42;2.97;;;1.60;;
49566;SDS011;35472;50.514;30.448;2022-07-22T14:25:08;1.95;;;0.88;;
49566;SDS011;35472;50.514;30.448;2022-07-22T14:27:33;3.55;;;0.80;;
49566;SDS011;35472;50.514;30.448;2022-07-22T14:29:59;3.17;;;1.08;;
49566;SDS011;35472;50.514;30.448;2022-07-22T14:32:24;0.85;;;0.80;;
49566;SDS011;35472;50.514;30.448;2022-07-22T14:34:49;0.70;;;0.60;;
49566;SDS011;35472;50.514;30.448;2022-07-22T14:37:15;1.25;;;0.77;;
49566;SDS011;35472;50.514;30.448;2022-07-22T14:39:40;2.17;;;0.90;;
49566;SDS011;35472;50.514;30.448;2022-07-22T14:42:06;1.10;;;0.90;;
49566;SDS011;35472;50.514;30.448;2022-07-22T14:44:31;2.53;;;1.60;;
49566;SDS011;35472;50.514;30.448;2022-07-22T14:46:56;0.93;;;0.93;;
49566;SDS011;35472;50.514;30.448;2022-07-22T14:49:22;1.55;;;1.45;;
49566;SDS011;35472;50.514;30.448;2022-07-22T14:51:47;1.38;;;1.27;;
49566;SDS011;35472;50.514;30.448;2022-07-22T14:54:12;0.98;;;0.70;;
49566;SDS011;35472;50.514;30.448;2022-07-22T14:56:38;4.82;;;1.55;;
49566;SDS011;35472;50.514;30.448;2022-07-22T14:59:04;1.42;;;0.90;;
49566;SDS011;35472;50.514;30.448;2022-07-22T15:01:30;2.30;;;1.13;;
49566;SDS011;35472;50.514;30.448;2022-07-22T15:03:56;1.88;;;1.10;;
49566;SDS011;35472;50.514;30.448;2022-07-22T15:06:21;1.42;;;1.00;;
49566;SDS011;35472;50.514;30.448;2022-07-22T15:08:47;1.17;;;1.00;;
49566;SDS011;35472;50.514;30.448;2022-07-22T15:11:12;1.33;;;1.23;;
49566;SDS011;35472;50.514;30.448;2022-07-22T15:13:38;3.97;;;1.15;;
49566;SDS011;35472;50.514;30.448;2022-07-22T15:16:03;3.20;;;1.10;;
49566;SDS011;35472;50.514;30.448;2022-07-22T15:18:29;1.50;;;0.70;;
49566;SDS011;35472;50.514;30.448;2022-07-22T15:20:54;0.90;;;0.90;;